Flat Top, West Virginia
Current Conditions -  °F | °C
As of 3:51 AM on Friday 31 Oct 2014 (Local Time) from KBKW Reporting Station
Few Clouds Few Clouds  
Wind Chill: 25°   Ceiling: Unl
Heat Index: 31°   Visibility: 10mi
Dew Point: 28°   Wind: 6mph
Humidity: 89%   Direction: 140°SE
Pressure: 29.97"   Gusts: NA
Location:  37.59°N, 81.11°W
Report Text: KBKW 310751Z AUTO 14005KT 10SM FEW036 M01/M02 A2997 RMK AO2 SLP167 T10061022 TSNO
Loading
Personal Weather Stations






























Interactive Weather Map
Tropical Storm Tracking
New forecast layout! Learn more

10-Day Weather Forecast

Advertisements
Track Severe Weather on mobile